Time;durP1;ratioP1;P1;durP2;ratioP2;P2;SDS_P1;SDS_P2;PMS_P1;PMS_P2;Temp;Humidity;BMP_temperature;BMP_pressure;BME280_temperature;BME280_humidity;BME280_pressure;Samples;Min_cycle;Max_cycle;Signal;HPM_P1;HPM_P2
2021/04/23 00:01:01;;;;;;;2.47;2.28;;;;;;;17.98;35.30;96404.94;5042983;28;20055;-61
2021/04/23 00:03:35;;;;;;;2.35;2.15;;;;;;;17.97;35.01;96404.13;5028885;28;20048;-61
2021/04/23 00:06:13;;;;;;;2.33;2.20;;;;;;;17.95;35.36;96403.56;5025901;28;20564;-61
2021/04/23 00:08:42;;;;;;;2.75;2.55;;;;;;;17.95;35.27;96403.56;5026089;28;20132;-61
2021/04/23 00:11:07;;;;;;;2.08;1.98;;;;;;;17.94;35.14;96410.06;5010610;28;20055;-61
2021/04/23 00:13:34;;;;;;;2.50;2.40;;;;;;;17.93;34.98;96416.56;5040983;28;20048;-61
2021/04/23 00:16:00;;;;;;;2.42;2.28;;;;;;;17.92;34.90;96406.78;5044861;28;20044;-63
2021/04/23 00:18:25;;;;;;;2.38;2.28;;;;;;;17.92;35.28;96416.81;5046544;28;20071;-62
2021/04/23 00:20:52;;;;;;;2.03;1.92;;;;;;;17.91;34.96;96415.22;5046705;28;20041;-61
2021/04/23 00:23:17;;;;;;;2.30;2.20;;;;;;;17.89;34.99;96418.19;5046288;28;20586;-61
2021/04/23 00:25:43;;;;;;;2.63;2.42;;;;;;;17.88;35.31;96421.94;5046577;28;20084;-61
2021/04/23 00:28:12;;;;;;;2.20;2.10;;;;;;;17.87;35.04;96412.22;5045386;28;20045;-61
2021/04/23 00:30:43;;;;;;;2.33;2.22;;;;;;;17.86;35.11;96423.31;5045461;28;20051;-61
2021/04/23 00:33:08;;;;;;;2.20;2.10;;;;;;;17.85;35.27;96418.97;5045020;28;20099;-60
2021/04/23 00:35:38;;;;;;;1.88;1.77;;;;;;;17.83;35.29;96417.34;5044652;28;20045;-61
2021/04/23 00:38:05;;;;;;;2.38;2.28;;;;;;;17.83;34.85;96420.03;5045789;28;20055;-61
2021/04/23 00:40:33;;;;;;;2.22;2.13;;;;;;;17.81;35.15;96422.16;5012426;28;20084;-62
2021/04/23 00:42:59;;;;;;;2.53;2.35;;;;;;;17.79;34.98;96413.50;5046853;28;20088;-61
2021/04/23 00:45:26;;;;;;;2.33;2.22;;;;;;;17.79;34.87;96421.63;5045318;28;20076;-61
2021/04/23 00:47:55;;;;;;;2.10;2.00;;;;;;;17.79;34.99;96418.09;5045673;28;20056;-60
2021/04/23 00:50:29;;;;;;;2.30;2.20;;;;;;;17.77;35.26;96418.34;5028716;28;20040;-61
2021/04/23 00:52:55;;;;;;;2.25;2.15;;;;;;;17.75;35.20;96417.00;5027486;28;20080;-61
2021/04/23 00:55:21;;;;;;;2.13;2.03;;;;;;;17.76;35.11;96418.66;5026977;28;20061;-62
2021/04/23 00:57:46;;;;;;;2.80;2.60;;;;;;;17.73;35.03;96414.56;5027593;28;20527;-61
2021/04/23 01:00:12;;;;;;;2.20;2.10;;;;;;;17.73;34.59;96414.56;5026476;28;20045;-61
2021/04/23 01:02:38;;;;;;;2.40;2.30;;;;;;;17.73;34.90;96421.88;5026231;28;20572;-61
2021/04/23 01:05:04;;;;;;;2.47;2.38;;;;;;;17.71;35.00;96419.41;5024698;28;20140;-61
2021/04/23 01:07:29;;;;;;;2.35;2.25;;;;;;;17.71;34.67;96419.41;5025715;28;20544;-61
2021/04/23 01:09:55;;;;;;;2.55;2.35;;;;;;;17.71;34.94;96424.03;5008649;28;20042;-61
2021/04/23 01:12:21;;;;;;;2.42;2.33;;;;;;;17.71;34.85;96424.03;5013961;28;20084;-61
2021/04/23 01:14:46;;;;;;;2.28;2.08;;;;;;;17.71;34.99;96424.03;5044069;28;20080;-60
2021/04/23 01:17:12;;;;;;;2.22;2.13;;;;;;;17.68;35.31;96422.66;5011305;28;20053;-61
2021/04/23 01:19:37;;;;;;;2.53;2.42;;;;;;;17.68;35.33;96425.38;5044650;28;20123;-61
2021/04/23 01:22:03;;;;;;;2.67;2.50;;;;;;;17.67;35.06;96421.03;5044079;28;20106;-61
2021/04/23 01:24:29;;;;;;;2.25;2.15;;;;;;;17.66;35.14;96424.00;5046679;28;20067;-61
2021/04/23 01:26:55;;;;;;;2.00;1.90;;;;;;;17.65;35.37;96430.50;5044470;28;20457;-61
2021/04/23 01:29:22;;;;;;;2.38;2.20;;;;;;;17.63;34.93;96419.91;5027670;28;20071;-61
2021/04/23 01:31:49;;;;;;;2.53;2.42;;;;;;;17.64;34.87;96432.41;5027903;28;20064;-61
2021/04/23 01:34:22;;;;;;;2.40;2.30;;;;;;;17.62;34.94;96427.22;5044418;28;20059;-61
2021/04/23 01:36:48;;;;;;;2.40;2.30;;;;;;;17.62;34.86;96431.84;5028798;28;20057;-61
2021/04/23 01:39:15;;;;;;;2.22;2.13;;;;;;;17.61;35.08;96435.63;5028064;28;20056;-61
2021/04/23 01:41:41;;;;;;;2.58;2.47;;;;;;;17.60;34.83;96434.81;5040754;28;20053;-61
2021/04/23 01:44:08;;;;;;;2.25;2.15;;;;;;;17.59;35.05;96435.06;5011441;28;20057;-61
2021/04/23 01:46:34;;;;;;;2.53;2.42;;;;;;;17.59;34.91;96441.31;5044305;28;20128;-61
2021/04/23 01:49:04;;;;;;;2.20;2.10;;;;;;;17.58;34.89;96441.56;5044373;28;20131;-61
2021/04/23 01:51:30;;;;;;;2.33;2.22;;;;;;;17.57;34.77;96440.75;5045026;28;20137;-61
2021/04/23 01:53:55;;;;;;;2.20;2.10;;;;;;;17.57;35.13;96439.97;5044903;28;20072;-61
2021/04/23 01:56:22;;;;;;;2.33;2.22;;;;;;;17.56;34.90;96444.53;5046499;28;20109;-61
2021/04/23 01:58:47;;;;;;;2.28;2.17;;;;;;;17.55;35.02;96442.13;5045963;28;20053;-62
2021/04/23 02:01:14;;;;;;;2.42;2.33;;;;;;;17.55;34.67;96442.13;5043761;28;20088;-61
2021/04/23 02:03:40;;;;;;;3.05;2.85;;;;;;;17.55;35.01;96439.41;5044524;28;20091;-61
2021/04/23 02:06:05;;;;;;;2.55;2.40;;;;;;;17.53;34.85;96444.25;5027561;28;20102;-61
2021/04/23 02:08:31;;;;;;;2.55;2.45;;;;;;;17.51;34.95;96438.28;5043489;28;20099;-61
2021/04/23 02:11:04;;;;;;;2.35;2.22;;;;;;;17.51;34.80;96443.72;5027266;28;20049;-61
2021/04/23 02:13:29;;;;;;;2.88;2.70;;;;;;;17.50;34.48;96439.34;5043142;28;20056;-60
2021/04/23 02:15:55;;;;;;;2.65;2.53;;;;;;;17.49;34.82;96446.69;5044154;28;20041;-62
2021/04/23 02:18:22;;;;;;;2.63;2.50;;;;;;;17.48;34.70;96449.63;5044400;28;20459;-62
2021/04/23 02:20:49;;;;;;;2.50;2.40;;;;;;;17.46;35.02;96444.47;5044429;28;20048;-61
2021/04/23 02:23:15;;;;;;;2.50;2.40;;;;;;;17.46;35.22;96443.66;5043232;28;20052;-62
2021/04/23 02:25:40;;;;;;;2.72;2.53;;;;;;;17.45;34.97;96442.06;5031273;28;20053;-61
2021/04/23 02:28:09;;;;;;;2.83;2.63;;;;;;;17.43;34.59;96442.31;5043171;28;20041;-61
2021/04/23 02:30:40;;;;;;;2.67;2.58;;;;;;;17.42;35.00;96446.91;5026512;28;20044;-60
2021/04/23 02:33:06;;;;;;;2.65;2.45;;;;;;;17.42;34.86;96438.78;5016655;28;20060;-61
2021/04/23 02:35:32;;;;;;;2.33;2.22;;;;;;;17.42;34.63;96444.19;5023607;28;20070;-64
2021/04/23 02:37:58;;;;;;;2.83;2.63;;;;;;;17.41;34.95;96449.88;5025851;28;20056;-60
2021/04/23 02:40:27;;;;;;;3.60;2.72;;;;;;;17.40;34.84;96449.06;5026999;28;20077;-61
2021/04/23 02:42:54;;;;;;;3.13;2.92;;;;;;;17.40;34.70;96454.47;5043755;28;20076;-61
2021/04/23 02:45:21;;;;;;;2.40;2.30;;;;;;;17.38;34.52;96445.81;5048242;28;20061;-61
2021/04/23 02:47:47;;;;;;;2.35;2.25;;;;;;;17.37;35.12;96452.28;5031229;28;20799;-61
2021/04/23 02:50:13;;;;;;;2.40;2.20;;;;;;;17.36;34.78;96453.38;5047132;28;20036;-61
2021/04/23 02:52:38;;;;;;;2.90;2.70;;;;;;;17.36;34.94;96452.53;5027981;28;20052;-61
2021/04/23 02:55:05;;;;;;;3.00;2.80;;;;;;;17.35;34.90;96454.44;5027799;28;20045;-61
2021/04/23 02:57:30;;;;;;;3.05;2.85;;;;;;;17.34;34.71;96457.38;5048436;28;20041;-61
2021/04/23 02:59:56;;;;;;;2.45;2.25;;;;;;;17.34;34.59;96454.69;5011472;28;20544;-63
2021/04/23 03:02:22;;;;;;;2.90;2.70;;;;;;;17.33;34.52;96456.59;5043091;28;20087;-63
2021/04/23 03:04:47;;;;;;;2.65;2.45;;;;;;;17.31;34.85;96457.94;5048264;28;20530;-63
2021/04/23 03:07:13;;;;;;;3.58;3.38;;;;;;;17.30;34.91;96456.31;5046987;28;20064;-63
2021/04/23 03:09:38;;;;;;;2.58;2.38;;;;;;;17.30;34.81;96459.81;5048554;28;20083;-63
2021/04/23 03:12:04;;;;;;;2.97;2.78;;;;;;;17.29;34.77;96455.47;5030250;28;20164;-63
2021/04/23 03:14:30;;;;;;;3.03;2.83;;;;;;;17.28;34.75;96459.28;5046913;28;20111;-64
2021/04/23 03:16:55;;;;;;;2.47;2.33;;;;;;;17.27;34.46;96463.03;5047946;28;20504;-64
2021/04/23 03:19:21;;;;;;;3.22;2.92;;;;;;;17.27;34.67;96468.44;5046658;28;20079;-63
2021/04/23 03:21:48;;;;;;;2.83;2.63;;;;;;;17.25;34.67;96459.78;5046379;28;20049;-62
2021/04/23 03:24:14;;;;;;;2.92;2.78;;;;;;;17.25;34.42;96465.19;5047866;28;20103;-63
2021/04/23 03:26:39;;;;;;;2.70;2.60;;;;;;;17.25;34.44;96465.19;5046504;28;20725;-63
2021/04/23 03:29:05;;;;;;;2.70;2.60;;;;;;;17.25;34.85;96469.78;5046784;28;20044;-62
2021/04/23 03:31:31;;;;;;;2.95;2.75;;;;;;;17.23;34.68;96467.34;5013874;28;20059;-63
2021/04/23 03:33:57;;;;;;;3.10;2.90;;;;;;;17.22;34.44;96477.34;5048054;28;20622;-64
2021/04/23 03:36:22;;;;;;;2.75;2.65;;;;;;;17.21;34.34;96472.19;5030089;28;20140;-63
2021/04/23 03:38:48;;;;;;;3.10;2.90;;;;;;;17.20;34.36;96476.00;5045334;28;20065;-63
2021/04/23 03:41:22;;;;;;;2.90;2.67;;;;;;;17.20;34.59;96478.69;5029655;28;20029;-63
2021/04/23 03:43:48;;;;;;;3.03;2.83;;;;;;;17.18;34.14;96478.13;5029359;28;20049;-62
2021/04/23 03:46:13;;;;;;;2.72;2.53;;;;;;;17.17;34.59;96480.03;5013270;28;20539;-63
2021/04/23 03:48:39;;;;;;;2.92;2.72;;;;;;;17.17;34.64;96479.19;5047691;28;20049;-63
2021/04/23 03:51:06;;;;;;;3.45;3.20;;;;;;;17.16;34.57;96483.81;5047291;28;20500;-63
2021/04/23 03:53:32;;;;;;;3.15;2.95;;;;;;;17.16;34.26;96483.00;5046231;28;20053;-63
2021/04/23 03:55:57;;;;;;;3.13;2.92;;;;;;;17.15;34.60;96494.88;5046724;28;20084;-63
2021/04/23 03:58:23;;;;;;;3.47;3.17;;;;;;;17.13;34.08;96486.19;5049518;28;20044;-61
2021/04/23 04:00:57;;;;;;;3.03;2.80;;;;;;;17.13;34.19;96488.91;5031046;28;20180;-62
2021/04/23 04:03:23;;;;;;;2.92;2.72;;;;;;;17.13;34.50;96494.31;5046349;28;20141;-62
2021/04/23 04:05:49;;;;;;;3.00;2.80;;;;;;;17.10;34.48;96492.16;5029214;28;20473;-62
2021/04/23 04:08:14;;;;;;;3.22;3.03;;;;;;;17.09;34.25;96501.31;5045812;28;20157;-62
2021/04/23 04:10:40;;;;;;;2.95;2.65;;;;;;;17.09;34.59;96490.50;5028788;28;20377;-62
2021/04/23 04:13:06;;;;;;;3.25;2.92;;;;;;;17.07;34.16;96496.19;5047136;28;20068;-62
2021/04/23 04:15:31;;;;;;;2.90;2.70;;;;;;;17.08;34.16;96491.59;5046055;28;20626;-62
2021/04/23 04:17:57;;;;;;;3.17;2.97;;;;;;;17.06;34.55;96502.66;5029545;28;20088;-62
2021/04/23 04:20:23;;;;;;;3.28;3.00;;;;;;;17.05;34.16;96501.03;5045539;28;20500;-62
2021/04/23 04:22:49;;;;;;;3.65;3.38;;;;;;;17.05;34.16;96500.25;5028440;28;20808;-63
2021/04/23 04:25:22;;;;;;;3.05;2.83;;;;;;;17.04;34.17;96504.81;5028871;28;20076;-62
2021/04/23 04:27:47;;;;;;;2.70;2.58;;;;;;;17.03;34.56;96508.59;5046920;28;20114;-62
2021/04/23 04:30:13;;;;;;;2.83;2.70;;;;;;;17.02;34.45;96506.97;5047340;28;20143;-62
2021/04/23 04:32:39;;;;;;;3.13;2.92;;;;;;;17.00;34.34;96512.66;5045388;28;20052;-62
2021/04/23 04:35:05;;;;;;;2.90;2.75;;;;;;;17.00;34.19;96512.66;5044896;28;20154;-63
2021/04/23 04:37:30;;;;;;;3.22;2.95;;;;;;;17.00;34.15;96518.06;5028368;28;20048;-62
2021/04/23 04:39:57;;;;;;;2.83;2.63;;;;;;;16.98;34.26;96520.22;5028863;28;20080;-61
2021/04/23 04:42:23;;;;;;;3.03;2.83;;;;;;;16.99;34.13;96526.44;5027792;28;20484;-62
2021/04/23 04:44:48;;;;;;;2.90;2.60;;;;;;;16.98;34.03;96531.03;5046009;28;20088;-65
2021/04/23 04:47:14;;;;;;;3.13;2.92;;;;;;;16.97;34.48;96532.09;5044895;28;20084;-62
2021/04/23 04:49:39;;;;;;;2.95;2.83;;;;;;;16.96;34.55;96533.19;5045473;28;20045;-64
2021/04/23 04:52:05;;;;;;;3.30;3.10;;;;;;;16.97;34.35;96536.69;5030891;28;20077;-62
2021/04/23 04:54:31;;;;;;;3.42;3.22;;;;;;;16.94;34.59;96535.31;5025070;28;20053;-62
2021/04/23 04:56:56;;;;;;;3.17;2.97;;;;;;;16.94;34.17;96538.03;5009144;28;20398;-62
2021/04/23 04:59:22;;;;;;;3.00;2.80;;;;;;;16.92;34.38;96534.75;5008066;28;20103;-63
2021/04/23 05:01:48;;;;;;;2.80;2.65;;;;;;;16.92;34.55;96539.31;5023762;28;20087;-62
2021/04/23 05:04:13;;;;;;;3.00;2.80;;;;;;;16.92;34.46;96547.44;5007683;28;20417;-62
2021/04/23 05:06:39;;;;;;;2.85;2.67;;;;;;;16.90;34.06;96545.03;5024687;28;20136;-63
2021/04/23 05:09:05;;;;;;;3.05;2.85;;;;;;;16.91;33.99;96549.34;5025146;28;20095;-63
2021/04/23 05:11:30;;;;;;;3.17;2.97;;;;;;;16.90;34.10;96550.44;5039976;28;20040;-63
2021/04/23 05:13:58;;;;;;;2.85;2.65;;;;;;;16.89;34.19;96559.59;5045086;28;20053;-62
2021/04/23 05:16:23;;;;;;;3.00;2.80;;;;;;;16.89;34.18;96559.59;5045189;28;20503;-63
2021/04/23 05:18:49;;;;;;;3.15;2.95;;;;;;;16.89;34.16;96570.41;5043855;28;20078;-63
2021/04/23 05:21:14;;;;;;;3.15;2.95;;;;;;;16.88;34.32;96568.81;5045582;28;20522;-62
2021/04/23 05:23:40;;;;;;;2.80;2.60;;;;;;;16.88;33.95;96571.50;5045341;28;20110;-62
2021/04/23 05:26:06;;;;;;;3.42;3.17;;;;;;;16.86;34.35;96575.53;5043710;28;20136;-62
2021/04/23 05:28:32;;;;;;;2.50;2.38;;;;;;;16.85;34.11;96572.00;5043878;28;20144;-63
2021/04/23 05:30:57;;;;;;;3.35;3.15;;;;;;;16.84;34.40;96573.09;5045431;28;20134;-63
2021/04/23 05:33:23;;;;;;;2.50;2.40;;;;;;;16.85;34.13;96573.91;5044521;28;20052;-62
2021/04/23 05:35:49;;;;;;;2.90;2.70;;;;;;;16.84;34.18;96578.50;5044008;28;20514;-62
2021/04/23 05:38:15;;;;;;;2.97;2.78;;;;;;;16.83;34.02;96570.63;5044054;28;20099;-62
2021/04/23 05:40:45;;;;;;;2.95;2.75;;;;;;;16.81;34.36;96570.88;5040688;28;20139;-63
2021/04/23 05:43:12;;;;;;;2.80;2.60;;;;;;;16.81;34.37;96568.97;5044231;28;20056;-62
2021/04/23 05:45:40;;;;;;;3.20;2.92;;;;;;;16.81;33.82;96573.59;5040453;28;20149;-62
2021/04/23 05:48:06;;;;;;;2.67;2.58;;;;;;;16.81;34.07;96571.69;5035478;28;20053;-62
2021/04/23 05:50:32;;;;;;;2.72;2.53;;;;;;;16.81;34.60;96573.59;5044909;28;20068;-63
2021/04/23 05:52:57;;;;;;;2.60;2.50;;;;;;;16.80;34.15;96569.22;5044343;28;20140;-63
2021/04/23 05:55:26;;;;;;;2.35;2.25;;;;;;;16.79;34.00;96575.69;5043419;28;20087;-63
2021/04/23 05:57:57;;;;;;;2.67;2.58;;;;;;;16.77;34.49;96580.53;5043685;28;20551;-62
2021/04/23 06:00:23;;;;;;;2.40;2.30;;;;;;;16.76;34.08;96579.72;5027133;28;20057;-62
2021/04/23 06:02:49;;;;;;;2.70;2.50;;;;;;;16.77;34.53;96588.66;5042477;28;20703;-62
2021/04/23 06:05:15;;;;;;;3.30;3.05;;;;;;;16.76;34.22;96576.22;5045117;28;20064;-63
2021/04/23 06:07:40;;;;;;;2.67;2.55;;;;;;;16.76;34.61;96593.25;5043424;28;20151;-62
2021/04/23 06:10:07;;;;;;;2.78;2.60;;;;;;;16.75;34.61;96585.38;5026444;28;20124;-62
2021/04/23 06:12:33;;;;;;;2.70;2.60;;;;;;;16.76;35.05;96582.44;5010535;28;20103;-61
2021/04/23 06:14:58;;;;;;;2.55;2.35;;;;;;;16.78;35.11;96587.59;5026726;28;20057;-63
2021/04/23 06:17:24;;;;;;;2.92;2.72;;;;;;;16.79;35.51;96583.81;5043520;28;20590;-63
2021/04/23 06:19:50;;;;;;;3.05;2.85;;;;;;;16.81;35.21;96589.81;5040955;28;20077;-62
2021/04/23 06:22:15;;;;;;;2.63;2.53;;;;;;;16.81;35.64;96584.41;5034924;28;20707;-63
2021/04/23 06:24:41;;;;;;;2.85;2.55;;;;;;;16.80;35.30;96580.88;5042617;28;20056;-63
2021/04/23 06:27:07;;;;;;;2.80;2.60;;;;;;;16.82;35.49;96591.47;5043913;28;20519;-64
2021/04/23 06:29:33;;;;;;;2.58;2.38;;;;;;;16.82;35.52;96586.06;5027272;28;20072;-62
2021/04/23 06:31:59;;;;;;;3.00;2.80;;;;;;;16.81;35.12;96582.50;5043547;28;20132;-62
2021/04/23 06:34:25;;;;;;;2.20;2.10;;;;;;;16.83;35.48;96586.88;5011273;28;20110;-62
2021/04/23 06:36:50;;;;;;;2.67;2.53;;;;;;;16.84;35.20;96580.38;5043474;28;20095;-62
2021/04/23 06:39:17;;;;;;;2.60;2.50;;;;;;;16.83;35.10;96584.97;5044746;28;20048;-63
2021/04/23 06:41:46;;;;;;;2.60;2.40;;;;;;;16.84;35.37;96581.22;5033631;28;20099;-62
2021/04/23 06:44:12;;;;;;;2.10;2.00;;;;;;;16.85;35.43;96587.44;5008966;28;20041;-62
2021/04/23 06:46:37;;;;;;;2.45;2.30;;;;;;;16.85;35.76;96582.81;5023182;28;20103;-61
2021/04/23 06:49:03;;;;;;;2.60;2.40;;;;;;;16.87;35.46;96591.50;5007431;28;20068;-62
2021/04/23 06:51:29;;;;;;;2.97;2.50;;;;;;;16.87;35.78;96582.56;5021709;28;20136;-62
2021/04/23 06:53:54;;;;;;;2.58;2.38;;;;;;;16.88;35.54;96593.16;5009169;28;20477;-62
2021/04/23 06:56:20;;;;;;;3.55;2.40;;;;;;;16.90;35.74;96582.06;5041707;28;20075;-63
2021/04/23 06:58:46;;;;;;;3.05;2.55;;;;;;;16.89;35.35;96583.94;5042800;28;20646;-62
2021/04/23 07:01:13;;;;;;;2.20;2.10;;;;;;;16.90;35.17;96584.75;5042204;28;20041;-63
2021/04/23 07:03:41;;;;;;;2.65;2.45;;;;;;;16.90;35.36;96582.91;5043863;28;20096;-62
2021/04/23 07:06:07;;;;;;;2.83;2.63;;;;;;;16.92;35.42;96585.31;5043104;28;20063;-62
2021/04/23 07:08:32;;;;;;;2.80;2.60;;;;;;;16.93;35.28;96590.50;5026946;28;20136;-62
2021/04/23 07:10:58;;;;;;;3.13;2.83;;;;;;;16.94;35.16;96591.28;5044413;28;20392;-62
2021/04/23 07:13:23;;;;;;;2.70;2.50;;;;;;;16.95;35.10;96587.53;5043381;28;20076;-63
2021/04/23 07:15:49;;;;;;;4.30;2.60;;;;;;;16.95;35.51;96593.75;5042527;28;20242;-62
2021/04/23 07:18:14;;;;;;;5.50;3.63;;;;;;;16.97;35.62;96597.03;5025717;28;20526;-62
2021/04/23 07:20:40;;;;;;;2.75;2.60;;;;;;;16.98;35.39;96589.72;5026509;28;20048;-62
2021/04/23 07:23:06;;;;;;;3.00;2.80;;;;;;;16.98;35.44;96590.56;5044255;28;20052;-61
2021/04/23 07:25:31;;;;;;;2.85;2.65;;;;;;;16.98;35.38;96593.25;5044378;28;20084;-62
2021/04/23 07:27:58;;;;;;;3.75;3.10;;;;;;;16.99;35.77;96597.59;5030562;28;20052;-62
2021/04/23 07:30:26;;;;;;;3.22;2.50;;;;;;;17.00;35.61;96598.41;5029894;28;20061;-62
2021/04/23 07:32:52;;;;;;;3.47;2.88;;;;;;;17.00;35.95;96601.94;5046379;28;20083;-62
2021/04/23 07:35:17;;;;;;;3.85;2.80;;;;;;;17.01;36.07;96595.44;5029344;28;20057;-62
2021/04/23 07:37:43;;;;;;;10.70;3.63;;;;;;;17.04;36.21;96598.72;5043843;28;20484;-62
2021/04/23 07:40:10;;;;;;;5.95;2.85;;;;;;;17.05;35.79;96603.06;5044724;28;20052;-62
2021/04/23 07:42:36;;;;;;;3.75;2.67;;;;;;;17.06;35.74;96604.69;5046170;28;20076;-62
2021/04/23 07:45:02;;;;;;;3.42;2.58;;;;;;;17.05;35.77;96608.47;5046380;28;20547;-62
2021/04/23 07:47:28;;;;;;;4.57;3.20;;;;;;;17.06;35.76;96597.38;5047154;28;20036;-63
2021/04/23 07:49:54;;;;;;;5.38;2.65;;;;;;;17.07;35.85;96603.59;5029715;28;20041;-62
2021/04/23 07:52:19;;;;;;;7.57;3.50;;;;;;;17.06;35.58;96602.78;5046522;28;20305;-63
2021/04/23 07:54:45;;;;;;;4.25;2.80;;;;;;;17.07;36.02;96609.00;5046657;28;20087;-62
2021/04/23 07:57:11;;;;;;;4.55;2.67;;;;;;;17.08;35.91;96611.47;5046063;28;20063;-62
2021/04/23 07:59:37;;;;;;;5.47;2.88;;;;;;;17.09;35.56;96612.28;5026193;28;20520;-61
2021/04/23 08:02:04;;;;;;;4.18;2.83;;;;;;;17.09;35.97;96609.56;5036462;28;20045;-63
2021/04/23 08:04:30;;;;;;;2.90;2.70;;;;;;;17.09;35.85;96613.13;5009653;28;20055;-63
2021/04/23 08:06:56;;;;;;;3.30;2.90;;;;;;;17.09;36.02;96613.13;5009948;28;20049;-62
2021/04/23 08:09:22;;;;;;;4.40;2.65;;;;;;;17.08;36.04;96614.19;5025985;28;20588;-62
2021/04/23 08:11:47;;;;;;;4.18;2.83;;;;;;;17.10;36.04;96619.34;5024764;28;20095;-62
2021/04/23 08:14:13;;;;;;;2.60;2.40;;;;;;;17.09;36.00;96613.13;5008339;28;20509;-62
2021/04/23 08:16:39;;;;;;;3.97;2.35;;;;;;;17.13;36.06;96621.53;5025175;28;20085;-61
2021/04/23 08:19:05;;;;;;;2.85;2.65;;;;;;;17.14;36.13;96620.47;5028696;28;20068;-62
2021/04/23 08:21:31;;;;;;;3.00;2.60;;;;;;;17.15;36.23;96622.09;5045711;28;20106;-62
2021/04/23 08:23:56;;;;;;;3.30;2.83;;;;;;;17.15;35.73;96619.38;5045528;28;20131;-62
2021/04/23 08:26:24;;;;;;;3.00;2.80;;;;;;;17.17;35.99;96625.34;5028810;28;20814;-62
2021/04/23 08:28:50;;;;;;;3.45;2.65;;;;;;;17.19;35.64;96631.31;5043002;28;20362;-62
2021/04/23 08:31:15;;;;;;;3.28;2.97;;;;;;;17.19;36.19;96628.63;5044734;28;20155;-62
2021/04/23 08:33:41;;;;;;;4.72;3.42;;;;;;;17.18;36.08;96622.41;5042329;28;20077;-62
2021/04/23 08:36:07;;;;;;;4.95;4.10;;;;;;;17.20;36.62;96631.09;5011771;28;20087;-63
2021/04/23 08:38:34;;;;;;;5.25;4.82;;;;;;;17.19;36.79;96624.06;5045228;28;20083;-62
2021/04/23 08:40:59;;;;;;;4.95;4.47;;;;;;;17.21;36.66;96626.47;5045398;28;20055;-63
2021/04/23 08:43:25;;;;;;;4.10;3.80;;;;;;;17.22;36.90;96623.53;5012164;28;20049;-62
2021/04/23 08:45:51;;;;;;;5.43;4.88;;;;;;;17.22;36.88;96628.94;5027205;28;20156;-62
2021/04/23 08:48:16;;;;;;;8.23;4.75;;;;;;;17.26;36.59;96631.16;5043783;28;20479;-62
2021/04/23 08:50:42;;;;;;;7.22;4.95;;;;;;;17.27;37.03;96630.88;5044858;28;20061;-63
2021/04/23 08:53:08;;;;;;;4.85;4.45;;;;;;;17.28;36.70;96629.00;5045277;28;20040;-62
2021/04/23 08:55:34;;;;;;;6.78;5.45;;;;;;;17.28;37.20;96632.53;5044405;28;20146;-63
2021/04/23 08:58:01;;;;;;;5.18;4.68;;;;;;;17.31;36.80;96631.19;5028911;28;20225;-62
2021/04/23 09:00:26;;;;;;;6.80;5.05;;;;;;;17.31;37.13;96628.47;5046396;28;20065;-62
2021/04/23 09:02:52;;;;;;;4.93;4.43;;;;;;;17.33;36.83;96635.25;5026595;28;20045;-62
2021/04/23 09:05:17;;;;;;;8.48;5.10;;;;;;;17.35;37.02;96638.53;5044801;28;20110;-63
2021/04/23 09:08:06;;;;;;;6.90;4.85;;;;;;;17.35;37.12;96643.13;5044352;28;20061;-63
2021/04/23 09:10:33;;;;;;;7.47;4.90;;;;;;;17.37;36.77;96644.50;5040153;28;20041;-62
2021/04/23 09:13:12;;;;;;;8.63;5.57;;;;;;;17.38;36.84;96640.75;5026171;28;20612;-63
2021/04/23 09:15:39;;;;;;;6.85;6.15;;;;;;;17.39;36.81;96645.06;5037907;28;20148;-62
2021/04/23 09:18:08;;;;;;;6.97;5.10;;;;;;;17.41;36.84;96642.91;5027225;28;20045;-62
2021/04/23 09:20:34;;;;;;;7.88;5.30;;;;;;;17.42;37.09;96644.56;5045455;28;20051;-62
2021/04/23 09:23:17;;;;;;;6.32;5.25;;;;;;;17.43;36.96;96640.78;5024932;28;20531;-62
2021/04/23 09:26:01;;;;;;;7.13;5.53;;;;;;;17.46;37.16;96642.16;5043288;28;20060;-61
2021/04/23 09:28:41;;;;;;;8.50;5.78;;;;;;;17.47;36.85;96642.97;5044864;28;20478;-62
2021/04/23 09:31:34;;;;;;;5.63;5.13;;;;;;;17.49;37.18;96644.34;5027024;28;20029;-64
2021/04/23 09:34:04;;;;;;;5.85;5.00;;;;;;;17.52;36.80;96641.13;5039708;28;20048;-61
2021/04/23 09:36:32;;;;;;;6.45;5.70;;;;;;;17.52;37.23;96637.59;5024830;28;20074;-63
2021/04/23 09:39:11;;;;;;;5.72;5.22;;;;;;;17.53;37.05;96642.78;5043691;28;20053;-61
2021/04/23 09:41:38;;;;;;;7.15;6.10;;;;;;;17.57;37.17;96635.75;5043793;28;20049;-62
2021/04/23 09:44:04;;;;;;;7.32;6.10;;;;;;;17.58;37.10;96631.16;5039221;28;20052;-62
2021/04/23 09:46:37;;;;;;;7.00;5.55;;;;;;;17.59;37.04;96636.31;5010128;28;20052;-63
2021/04/23 09:49:16;;;;;;;8.00;6.40;;;;;;;17.60;37.34;96640.66;5027411;28;20407;-63
2021/04/23 09:51:42;;;;;;;6.60;5.90;;;;;;;17.64;37.44;96640.97;5044007;28;20112;-62
2021/04/23 09:54:26;;;;;;;7.32;5.50;;;;;;;17.65;37.41;96636.34;5043584;28;20079;-62
2021/04/23 09:56:52;;;;;;;6.30;5.60;;;;;;;17.67;37.37;96635.00;5027174;28;20373;-62
2021/04/23 09:59:21;;;;;;;8.00;6.20;;;;;;;17.71;37.21;96638.03;5027864;28;20583;-62
2021/04/23 10:02:00;;;;;;;7.03;5.40;;;;;;;17.73;37.21;96636.69;5026306;28;20416;-62
2021/04/23 10:04:33;;;;;;;5.40;4.68;;;;;;;17.76;36.96;96636.19;5044874;28;20561;-61
2021/04/23 10:07:27;;;;;;;6.60;4.82;;;;;;;17.76;37.31;96630.78;5045739;28;20099;-62
2021/04/23 10:09:59;;;;;;;4.47;4.07;;;;;;;17.81;36.57;96636.22;5028628;28;20726;-61
2021/04/23 10:12:33;;;;;;;5.00;4.38;;;;;;;17.83;36.96;96630.56;5045379;28;20524;-62
2021/04/23 10:15:00;;;;;;;4.82;4.13;;;;;;;17.85;36.74;96624.91;5028644;28;20044;-61
2021/04/23 10:17:27;;;;;;;4.80;4.30;;;;;;;17.86;36.77;96631.94;5027951;28;20083;-61
2021/04/23 10:19:54;;;;;;;5.97;4.45;;;;;;;17.87;36.53;96620.84;5026981;28;20048;-62
2021/04/23 10:22:19;;;;;;;10.63;5.10;;;;;;;17.88;36.97;96621.66;5043637;28;20571;-62
2021/04/23 10:24:45;;;;;;;4.68;4.20;;;;;;;17.88;36.58;96618.94;5042936;28;20575;-62
2021/04/23 10:27:10;;;;;;;4.15;3.75;;;;;;;17.91;36.63;96623.88;5026343;28;20494;-61
2021/04/23 10:29:36;;;;;;;3.67;3.38;;;;;;;17.91;36.60;96624.66;5044479;28;20186;-61
2021/04/23 10:32:04;;;;;;;7.15;3.75;;;;;;;17.92;36.49;96617.34;5043881;28;20037;-61
2021/04/23 10:34:32;;;;;;;5.53;3.58;;;;;;;17.93;36.57;96619.00;5027462;28;20091;-62
2021/04/23 10:36:58;;;;;;;4.35;3.53;;;;;;;17.93;36.25;96611.69;5044190;28;20076;-61
2021/04/23 10:39:24;;;;;;;3.70;3.40;;;;;;;17.94;36.44;96615.19;5043709;28;20520;-61
2021/04/23 10:41:50;;;;;;;4.97;3.30;;;;;;;17.94;36.42;96624.13;5043798;28;20341;-61
2021/04/23 10:44:17;;;;;;;4.13;3.72;;;;;;;17.96;36.31;96621.19;5044756;28;20045;-62
2021/04/23 10:46:50;;;;;;;4.32;3.92;;;;;;;17.96;36.26;96623.88;5043438;28;20126;-62
2021/04/23 10:49:16;;;;;;;3.35;3.05;;;;;;;17.97;36.14;96617.41;5045349;28;20048;-62
2021/04/23 10:51:42;;;;;;;3.47;3.17;;;;;;;17.97;35.97;96614.69;5043043;28;20076;-61
2021/04/23 10:54:17;;;;;;;3.90;3.03;;;;;;;17.98;36.30;96614.41;5026834;28;20621;-61
2021/04/23 10:56:50;;;;;;;4.07;3.67;;;;;;;17.98;36.07;96608.19;5011470;28;21086;-62
2021/04/23 10:59:26;;;;;;;3.42;3.13;;;;;;;17.99;36.12;96615.25;5026508;28;20092;-62
2021/04/23 11:01:52;;;;;;;3.47;3.17;;;;;;;18.00;36.31;96623.09;5047720;28;20052;-62
2021/04/23 11:04:18;;;;;;;3.58;3.28;;;;;;;18.02;36.03;96614.72;5047508;28;20089;-62
2021/04/23 11:07:08;;;;;;;4.43;3.28;;;;;;;18.02;36.22;96615.53;5047301;28;20057;-62
2021/04/23 11:09:34;;;;;;;3.92;2.83;;;;;;;18.04;36.07;96615.28;5048419;28;20083;-62
2021/04/23 11:12:06;;;;;;;3.40;3.10;;;;;;;18.05;36.17;96613.38;5031099;28;20099;-62
2021/04/23 11:14:32;;;;;;;3.38;2.88;;;;;;;18.07;35.75;96613.91;5048234;28;20381;-63
2021/04/23 11:17:33;;;;;;;3.60;3.10;;;;;;;18.08;35.88;96608.25;5014919;28;20076;-62
2021/04/23 11:19:59;;;;;;;3.25;3.05;;;;;;;18.08;36.06;96602.81;5036575;28;20053;-62
2021/04/23 11:22:26;;;;;;;4.28;3.03;;;;;;;18.10;35.99;96608.00;5030561;28;20508;-62
2021/04/23 11:25:17;;;;;;;3.10;2.90;;;;;;;18.11;35.94;96601.47;4993781;28;20063;-62
2021/04/23 11:28:01;;;;;;;3.05;2.85;;;;;;;18.14;35.81;96606.41;5027825;28;20080;-62
2021/04/23 11:30:28;;;;;;;2.85;2.70;;;;;;;18.15;35.73;96603.41;5029453;28;20083;-61
2021/04/23 11:32:55;;;;;;;3.10;2.90;;;;;;;18.16;35.47;96599.63;5010077;28;20053;-62
2021/04/23 11:35:23;;;;;;;4.07;3.00;;;;;;;18.16;35.69;96588.78;5028262;28;20498;-62